Time;durP1;ratioP1;P1;durP2;ratioP2;P2;SDS_P1;SDS_P2;PMS_P1;PMS_P2;Temp;Humidity;BMP_temperature;BMP_pressure;BME280_temperature;BME280_humidity;BME280_pressure;Samples;Min_cycle;Max_cycle;Signal;HPM_P1;HPM_P2
2022/11/25 00:00:44;;;;;;;11.80;2.55;;;8.20;99.90;;;;;;5035373;28;20146;-70
2022/11/25 00:03:09;;;;;;;12.27;2.88;;;8.20;99.90;;;;;;5050734;28;20053;-69
2022/11/25 00:05:35;;;;;;;14.32;3.42;;;8.20;99.90;;;;;;5035263;28;20064;-70
2022/11/25 00:08:00;;;;;;;11.25;2.80;;;8.20;99.90;;;;;;5050866;28;20132;-69
2022/11/25 00:10:26;;;;;;;12.10;3.25;;;8.10;99.90;;;;;;5035141;28;20048;-70
2022/11/25 00:12:51;;;;;;;12.38;2.80;;;8.20;99.90;;;;;;5047112;28;20044;-69
2022/11/25 00:15:17;;;;;;;10.57;2.72;;;8.20;99.90;;;;;;5071783;28;20033;-69
2022/11/25 00:17:42;;;;;;;16.40;2.92;;;8.10;99.90;;;;;;5053944;28;20462;-70
2022/11/25 00:20:08;;;;;;;12.90;2.80;;;8.20;99.90;;;;;;5071681;28;20043;-70
2022/11/25 00:22:34;;;;;;;14.57;3.28;;;8.20;99.90;;;;;;5053076;28;20033;-69
2022/11/25 00:24:59;;;;;;;14.23;3.97;;;8.20;99.90;;;;;;5055042;28;20531;-70
2022/11/25 00:27:25;;;;;;;13.55;3.25;;;8.10;99.90;;;;;;5054969;28;20040;-69
2022/11/25 00:29:50;;;;;;;14.40;3.03;;;8.20;99.90;;;;;;5035737;28;20128;-69
2022/11/25 00:32:16;;;;;;;13.25;2.83;;;8.20;99.90;;;;;;5034313;28;20057;-69
2022/11/25 00:34:41;;;;;;;16.02;3.00;;;8.20;99.90;;;;;;5034994;28;20067;-69
2022/11/25 00:37:07;;;;;;;10.80;2.75;;;8.20;99.90;;;;;;5035170;28;20052;-70
2022/11/25 00:39:32;;;;;;;12.52;3.20;;;8.20;99.90;;;;;;5066249;28;20094;-69
2022/11/25 00:44:42;;;;;;;12.35;3.03;;;8.20;99.90;;;;;;5055373;28;20141;-70
2022/11/25 00:47:14;;;;;;;11.93;3.20;;;8.20;99.90;;;;;;5038570;28;20124;-70
2022/11/25 00:49:42;;;;;;;13.38;2.95;;;8.20;99.90;;;;;;5071083;28;20577;-69
2022/11/25 00:52:12;;;;;;;12.00;2.63;;;8.30;99.90;;;;;;5065332;28;20179;-69
2022/11/25 00:54:37;;;;;;;14.18;3.00;;;8.30;99.90;;;;;;5038195;28;20041;-69
2022/11/25 00:57:03;;;;;;;13.35;3.90;;;8.30;99.90;;;;;;5038571;28;20098;-69
2022/11/25 00:59:29;;;;;;;14.45;3.05;;;8.30;99.90;;;;;;5038904;28;20037;-69
2022/11/25 01:01:55;;;;;;;10.93;3.00;;;8.20;99.90;;;;;;5037982;28;20076;-69
2022/11/25 01:04:20;;;;;;;15.77;3.13;;;8.30;99.90;;;;;;5065069;28;20400;-69
2022/11/25 01:06:46;;;;;;;16.05;3.50;;;8.30;99.90;;;;;;5073998;28;20124;-70
2022/11/25 01:09:14;;;;;;;11.27;2.85;;;8.30;99.90;;;;;;5074966;28;20578;-70
2022/11/25 01:11:40;;;;;;;13.27;2.72;;;8.30;99.90;;;;;;5049816;28;20473;-70
2022/11/25 01:14:06;;;;;;;9.75;2.33;;;8.30;99.90;;;;;;5038547;28;20041;-70
2022/11/25 01:16:31;;;;;;;17.17;3.53;;;8.50;99.90;;;;;;5054846;28;20033;-70
2022/11/25 01:18:59;;;;;;;16.70;2.95;;;8.40;99.90;;;;;;5047918;28;20040;-70
2022/11/25 01:21:28;;;;;;;15.35;3.13;;;8.40;99.90;;;;;;5068707;28;20397;-70
2022/11/25 01:23:54;;;;;;;12.73;2.90;;;8.40;99.90;;;;;;5054886;28;20045;-70
2022/11/25 01:26:22;;;;;;;12.10;2.85;;;8.40;99.90;;;;;;5038610;28;20489;-70
2022/11/25 01:28:53;;;;;;;16.05;3.55;;;8.30;99.90;;;;;;5057942;28;20048;-70
2022/11/25 01:31:20;;;;;;;13.82;3.42;;;8.40;99.90;;;;;;5067349;28;20032;-70
2022/11/25 01:33:50;;;;;;;14.07;4.40;;;8.40;99.90;;;;;;5037952;28;20076;-70
2022/11/25 01:36:17;;;;;;;13.85;3.75;;;8.30;99.90;;;;;;5037955;28;20583;-70
2022/11/25 01:38:44;;;;;;;16.10;3.20;;;8.30;99.90;;;;;;5045421;28;20051;-69
2022/11/25 01:41:12;;;;;;;11.43;2.92;;;8.20;99.90;;;;;;5072298;28;20511;-69
2022/11/25 01:43:37;;;;;;;15.35;3.40;;;8.20;99.90;;;;;;5057554;28;20063;-70
2022/11/25 01:46:14;;;;;;;11.15;3.03;;;8.30;99.90;;;;;;5057712;28;20037;-70
2022/11/25 01:48:47;;;;;;;13.50;2.65;;;8.30;99.90;;;;;;5056775;28;20439;-69
2022/11/25 01:51:21;;;;;;;11.38;2.95;;;8.30;99.90;;;;;;5067697;28;20072;-70
2022/11/25 01:53:47;;;;;;;13.77;3.00;;;8.30;99.90;;;;;;5054356;28;20060;-69
2022/11/25 01:56:13;;;;;;;13.98;2.85;;;8.30;99.90;;;;;;5037765;28;20044;-69
2022/11/25 01:58:40;;;;;;;9.70;2.63;;;8.20;99.90;;;;;;5061136;28;20481;-70
2022/11/25 02:01:06;;;;;;;12.52;2.95;;;8.30;99.90;;;;;;5055274;28;20048;-70
2022/11/25 02:03:38;;;;;;;14.80;2.60;;;8.30;99.90;;;;;;5073713;28;20045;-70
2022/11/25 02:06:08;;;;;;;;;;;8.40;99.90;;;;;;5074481;28;20048;-70
2022/11/25 02:08:34;;;;;;;13.10;2.67;;;8.40;99.90;;;;;;5072964;28;20420;-69
2022/11/25 02:11:00;;;;;;;10.13;2.92;;;8.40;99.90;;;;;;5055598;28;20116;-70
2022/11/25 02:13:27;;;;;;;13.27;3.38;;;8.40;99.90;;;;;;5053926;28;20041;-70
2022/11/25 02:15:53;;;;;;;11.75;2.92;;;8.40;99.90;;;;;;5036525;28;20045;-70
2022/11/25 02:18:18;;;;;;;15.40;3.25;;;8.40;99.90;;;;;;5053710;28;20149;-70
2022/11/25 02:20:44;;;;;;;15.00;3.33;;;8.40;99.90;;;;;;5037166;28;20045;-70
2022/11/25 02:23:37;;;;;;;14.60;3.35;;;8.40;99.90;;;;;;5036225;28;20412;-70
2022/11/25 02:26:03;;;;;;;15.13;3.42;;;8.40;99.90;;;;;;5037059;28;20052;-70
2022/11/25 02:28:31;;;;;;;12.55;2.75;;;8.40;99.90;;;;;;5057996;28;20115;-70
2022/11/25 02:30:57;;;;;;;13.52;2.70;;;8.40;99.90;;;;;;5073546;28;20036;-70
2022/11/25 02:33:24;;;;;;;14.63;3.67;;;8.50;99.90;;;;;;5036367;28;20088;-71
2022/11/25 02:35:51;;;;;;;11.68;2.95;;;8.50;99.90;;;;;;5036860;28;20040;-71
2022/11/25 02:38:38;;;;;;;11.93;3.10;;;8.40;99.90;;;;;;5040668;28;20032;-70
2022/11/25 02:41:03;;;;;;;11.82;3.38;;;8.40;99.90;;;;;;5055110;28;20089;-70
2022/11/25 02:43:30;;;;;;;11.18;2.95;;;8.40;99.90;;;;;;5017061;28;20049;-71
2022/11/25 02:45:58;;;;;;;12.27;3.17;;;8.40;99.90;;;;;;5018749;28;20124;-70
2022/11/25 02:48:26;;;;;;;15.32;3.35;;;8.40;99.90;;;;;;5023440;28;20029;-70
2022/11/25 02:50:52;;;;;;;12.05;3.28;;;8.40;99.90;;;;;;5062263;28;20045;-71
2022/11/25 02:53:18;;;;;;;16.10;4.00;;;8.50;99.90;;;;;;5068198;28;20094;-70
2022/11/25 02:55:44;;;;;;;12.32;2.90;;;8.50;99.90;;;;;;5072447;28;20044;-70
2022/11/25 02:58:10;;;;;;;14.45;3.38;;;8.50;99.90;;;;;;5032560;28;20041;-70
2022/11/25 03:00:36;;;;;;;12.98;3.33;;;8.40;99.90;;;;;;5052502;28;20049;-70
2022/11/25 03:03:02;;;;;;;13.68;4.32;;;8.40;99.90;;;;;;5050937;28;20140;-70
2022/11/25 03:05:28;;;;;;;13.25;3.65;;;8.40;99.90;;;;;;5052380;28;20053;-70
2022/11/25 03:07:53;;;;;;;12.40;3.03;;;8.40;99.90;;;;;;5053495;28;20044;-70
2022/11/25 03:10:19;;;;;;;12.70;3.53;;;8.50;99.90;;;;;;5056098;28;20040;-70
2022/11/25 03:12:44;;;;;;;12.88;4.00;;;8.50;99.90;;;;;;5057853;28;20075;-70
2022/11/25 03:15:10;;;;;;;12.20;3.60;;;8.50;99.90;;;;;;5052622;28;20080;-70
2022/11/25 03:17:36;;;;;;;15.38;4.55;;;8.60;99.90;;;;;;5052709;28;20094;-70
2022/11/25 03:20:03;;;;;;;13.50;3.65;;;8.60;99.90;;;;;;5052404;28;20544;-70
2022/11/25 03:22:29;;;;;;;14.77;3.70;;;8.60;99.90;;;;;;5060400;28;20072;-70
2022/11/25 03:24:54;;;;;;;15.13;4.25;;;8.50;99.90;;;;;;5049470;28;20481;-70
2022/11/25 03:27:20;;;;;;;14.57;3.92;;;8.60;99.90;;;;;;5055771;28;20107;-70
2022/11/25 03:29:46;;;;;;;12.63;3.75;;;8.60;99.90;;;;;;5070030;28;20040;-70
2022/11/25 03:32:11;;;;;;;16.00;3.95;;;8.60;99.90;;;;;;5062576;28;20037;-70
2022/11/25 03:34:37;;;;;;;14.90;3.80;;;8.50;99.90;;;;;;5035788;28;20053;-70
2022/11/25 03:37:02;;;;;;;16.20;4.55;;;8.50;99.90;;;;;;5035743;28;20040;-71
2022/11/25 03:39:28;;;;;;;13.13;3.60;;;8.50;99.90;;;;;;5034969;28;20069;-70
2022/11/25 03:41:53;;;;;;;13.82;3.63;;;8.50;99.90;;;;;;5065131;28;20049;-70
2022/11/25 03:44:19;;;;;;;16.83;4.00;;;8.50;99.90;;;;;;5035429;28;20037;-71
2022/11/25 03:46:44;;;;;;;11.73;3.38;;;8.50;99.90;;;;;;5035708;28;20047;-70
2022/11/25 03:49:10;;;;;;;16.48;3.80;;;8.60;99.90;;;;;;5063373;28;20068;-70
2022/11/25 03:51:36;;;;;;;11.38;3.70;;;8.60;99.90;;;;;;5067666;28;20140;-70
2022/11/25 03:54:01;;;;;;;15.02;5.03;;;8.50;99.90;;;;;;5052285;28;20274;-70
2022/11/25 03:56:27;;;;;;;13.43;4.85;;;8.60;99.90;;;;;;5052013;28;20041;-70
2022/11/25 03:58:52;;;;;;;14.35;3.80;;;8.60;99.90;;;;;;5065153;28;20409;-70
2022/11/25 04:01:18;;;;;;;13.85;3.67;;;8.60;99.90;;;;;;5070229;28;20078;-70
2022/11/25 04:03:43;;;;;;;14.75;3.97;;;8.60;99.90;;;;;;5035082;28;20056;-71
2022/11/25 04:06:09;;;;;;;15.85;4.18;;;8.50;99.90;;;;;;5035391;28;20070;-70
2022/11/25 04:08:35;;;;;;;17.98;3.90;;;8.50;99.90;;;;;;5041742;28;20401;-70
2022/11/25 04:11:00;;;;;;;17.38;5.05;;;8.50;99.90;;;;;;5071824;28;20045;-69
2022/11/25 04:13:26;;;;;;;15.73;3.63;;;8.60;99.90;;;;;;5038890;28;20052;-70
2022/11/25 04:15:52;;;;;;;19.67;6.25;;;8.60;99.90;;;;;;5035129;28;20052;-70
2022/11/25 04:18:18;;;;;;;15.82;4.25;;;8.60;99.90;;;;;;5039455;28;20127;-70
2022/11/25 04:20:44;;;;;;;13.63;3.90;;;8.70;99.90;;;;;;5054975;28;20047;-70
2022/11/25 04:23:11;;;;;;;16.42;4.55;;;8.60;99.90;;;;;;5057840;28;20048;-70
2022/11/25 04:25:38;;;;;;;12.70;4.57;;;8.70;99.90;;;;;;5035153;28;20051;-70
2022/11/25 04:28:04;;;;;;;17.02;4.40;;;8.60;99.90;;;;;;5049654;28;20043;-70
2022/11/25 04:30:29;;;;;;;13.60;4.55;;;8.70;99.90;;;;;;5054935;28;20458;-70
2022/11/25 04:32:55;;;;;;;14.52;4.45;;;8.70;99.90;;;;;;5069135;28;20041;-70
2022/11/25 04:35:21;;;;;;;11.88;4.00;;;8.60;99.90;;;;;;5039571;28;20037;-70
2022/11/25 04:37:47;;;;;;;14.48;4.68;;;8.70;99.90;;;;;;5070648;28;20036;-70
2022/11/25 04:40:13;;;;;;;12.32;4.25;;;8.60;99.90;;;;;;5071880;28;20033;-70
2022/11/25 04:42:38;;;;;;;12.20;4.00;;;8.70;99.90;;;;;;5054757;28;20041;-70
2022/11/25 04:45:16;;;;;;;16.63;4.32;;;8.70;99.90;;;;;;5034251;28;20037;-69
2022/11/25 04:47:43;;;;;;;13.98;4.10;;;8.70;99.90;;;;;;5051274;28;20217;-69
2022/11/25 04:50:14;;;;;;;14.23;4.20;;;8.80;99.90;;;;;;5045584;28;20115;-70
2022/11/25 04:52:40;;;;;;;16.20;4.32;;;8.80;99.90;;;;;;5071629;28;20040;-69
2022/11/25 04:55:06;;;;;;;17.70;4.50;;;8.80;99.90;;;;;;5050827;28;20554;-70
2022/11/25 04:57:32;;;;;;;15.00;4.45;;;8.70;99.90;;;;;;5035386;28;20041;-70
2022/11/25 04:59:58;;;;;;;14.85;4.68;;;8.80;99.90;;;;;;5034673;28;20040;-70
2022/11/25 05:02:25;;;;;;;14.93;4.97;;;8.80;99.90;;;;;;5045615;28;20091;-70
2022/11/25 05:04:53;;;;;;;13.85;4.40;;;8.70;99.90;;;;;;5051902;28;20489;-69
2022/11/25 05:07:20;;;;;;;18.50;5.22;;;8.70;99.90;;;;;;5051634;28;20441;-69
2022/11/25 05:09:46;;;;;;;17.27;5.20;;;8.70;99.90;;;;;;5034866;28;20079;-69
2022/11/25 05:12:19;;;;;;;14.23;4.85;;;8.70;99.90;;;;;;5051255;28;20041;-69
2022/11/25 05:14:45;;;;;;;17.30;5.10;;;8.70;99.90;;;;;;5067615;28;20060;-70
2022/11/25 05:17:20;;;;;;;16.30;4.88;;;8.70;99.90;;;;;;5071213;28;20033;-69
2022/11/25 05:19:46;;;;;;;15.07;5.30;;;8.60;99.90;;;;;;5062579;28;20037;-69
2022/11/25 05:22:17;;;;;;;16.95;4.95;;;8.60;99.90;;;;;;5051201;28;20051;-69
2022/11/25 05:24:43;;;;;;;16.38;5.85;;;8.60;99.90;;;;;;5034618;28;20051;-69
2022/11/25 05:27:09;;;;;;;14.05;5.28;;;8.60;99.90;;;;;;5035528;28;20123;-69
2022/11/25 05:29:35;;;;;;;13.60;4.97;;;8.60;99.90;;;;;;5068322;28;20503;-69
2022/11/25 05:32:01;;;;;;;15.13;4.88;;;8.70;99.90;;;;;;5056801;28;20028;-69
2022/11/25 05:34:26;;;;;;;17.60;5.10;;;8.70;99.90;;;;;;5057895;28;20451;-69
2022/11/25 05:36:52;;;;;;;14.38;5.07;;;8.70;99.90;;;;;;5057605;28;20041;-69
2022/11/25 05:39:18;;;;;;;17.90;5.50;;;8.70;99.90;;;;;;5037912;28;20041;-69
2022/11/25 05:41:43;;;;;;;17.55;5.15;;;8.70;99.90;;;;;;5037753;28;20052;-69
2022/11/25 05:44:09;;;;;;;15.10;4.53;;;8.70;99.90;;;;;;5065576;28;20059;-69
2022/11/25 05:46:35;;;;;;;16.58;5.20;;;8.70;99.90;;;;;;5074420;28;20028;-69
2022/11/25 05:49:00;;;;;;;15.55;5.72;;;8.70;99.90;;;;;;5074381;28;20109;-69
2022/11/25 05:51:27;;;;;;;12.15;5.40;;;8.70;99.90;;;;;;5057616;28;20047;-69
2022/11/25 05:53:53;;;;;;;15.15;5.50;;;8.70;99.90;;;;;;5063824;28;20057;-69
2022/11/25 05:56:18;;;;;;;15.48;5.20;;;8.70;99.90;;;;;;5037856;28;20045;-69
2022/11/25 05:58:44;;;;;;;17.02;5.90;;;8.70;99.90;;;;;;5037591;28;20040;-69
2022/11/25 06:01:13;;;;;;;15.23;5.75;;;8.70;99.90;;;;;;5053283;28;20047;-69
2022/11/25 06:03:39;;;;;;;13.00;4.82;;;8.80;99.90;;;;;;5038198;28;20052;-69
2022/11/25 06:06:06;;;;;;;18.55;5.65;;;8.90;99.90;;;;;;5054205;28;20037;-69
2022/11/25 06:08:32;;;;;;;15.07;5.40;;;8.80;99.90;;;;;;5053193;28;20033;-69
2022/11/25 06:10:57;;;;;;;10.25;4.97;;;8.80;99.90;;;;;;5054112;28;20041;-69
2022/11/25 06:13:23;;;;;;;16.90;5.60;;;8.80;99.90;;;;;;5051515;28;20123;-69
2022/11/25 06:15:49;;;;;;;14.15;5.80;;;8.80;99.90;;;;;;5047919;28;20041;-69
2022/11/25 06:18:16;;;;;;;14.65;4.95;;;8.80;99.90;;;;;;5014908;28;20404;-70
2022/11/25 06:20:42;;;;;;;16.75;5.47;;;8.80;99.90;;;;;;5033273;28;20045;-69
2022/11/25 06:23:08;;;;;;;16.67;5.43;;;8.80;99.90;;;;;;5033048;28;20051;-69
2022/11/25 06:25:35;;;;;;;14.02;5.53;;;8.80;99.90;;;;;;5044817;28;20504;-69
2022/11/25 06:28:02;;;;;;;12.63;5.13;;;8.80;99.90;;;;;;5035207;28;20044;-69
2022/11/25 06:30:28;;;;;;;14.73;5.43;;;8.80;99.90;;;;;;5045193;28;20486;-70
2022/11/25 06:32:54;;;;;;;16.75;5.65;;;8.80;99.90;;;;;;5034408;28;20120;-69
2022/11/25 06:35:20;;;;;;;19.73;5.88;;;8.80;99.90;;;;;;5052597;28;20463;-69
2022/11/25 06:37:45;;;;;;;14.40;5.22;;;8.80;99.90;;;;;;5035634;28;20037;-69
2022/11/25 06:40:11;;;;;;;14.95;5.40;;;8.90;99.90;;;;;;5053664;28;20037;-69
2022/11/25 06:42:38;;;;;;;16.50;5.10;;;8.80;99.90;;;;;;5036017;28;20045;-69
2022/11/25 06:45:04;;;;;;;13.77;5.00;;;8.90;99.90;;;;;;5052483;28;20052;-69
2022/11/25 06:47:30;;;;;;;17.42;5.10;;;8.90;99.90;;;;;;5035880;28;20041;-69
2022/11/25 06:49:55;;;;;;;15.85;5.07;;;8.90;99.90;;;;;;5056194;28;20090;-69
2022/11/25 06:52:21;;;;;;;12.77;4.72;;;8.90;99.90;;;;;;5048620;28;20033;-69
2022/11/25 06:54:47;;;;;;;13.80;4.90;;;8.80;99.90;;;;;;5068080;28;20067;-69
2022/11/25 06:57:16;;;;;;;12.75;4.70;;;8.80;99.90;;;;;;5044978;28;20045;-69
2022/11/25 06:59:43;;;;;;;11.80;4.40;;;8.80;99.90;;;;;;5062268;28;20045;-69
2022/11/25 07:02:10;;;;;;;14.88;4.78;;;8.80;99.90;;;;;;5063411;28;20057;-70
2022/11/25 07:04:35;;;;;;;14.88;4.20;;;8.80;99.90;;;;;;5057715;28;20044;-69
2022/11/25 07:07:02;;;;;;;13.80;4.18;;;8.80;99.90;;;;;;5069468;28;20123;-69
2022/11/25 07:09:27;;;;;;;15.48;5.05;;;8.80;99.90;;;;;;5063605;28;20040;-70
2022/11/25 07:11:53;;;;;;;10.90;3.97;;;8.90;99.90;;;;;;5070916;28;20134;-69
2022/11/25 07:14:18;;;;;;;12.30;4.30;;;8.80;99.90;;;;;;5032883;28;20136;-70
2022/11/25 07:16:45;;;;;;;10.02;3.03;;;8.90;99.90;;;;;;5052530;28;20071;-69
2022/11/25 07:19:12;;;;;;;9.50;3.20;;;8.90;99.90;;;;;;5050054;28;20077;-70
2022/11/25 07:21:38;;;;;;;10.60;3.05;;;8.80;99.90;;;;;;5048343;28;20477;-70
2022/11/25 07:24:06;;;;;;;14.43;3.92;;;8.90;99.90;;;;;;5042076;28;20048;-70
2022/11/25 07:26:39;;;;;;;11.68;3.90;;;8.80;99.90;;;;;;5066990;28;20036;-70
2022/11/25 07:29:08;;;;;;;10.27;2.97;;;8.80;99.90;;;;;;5031829;28;20066;-70
2022/11/25 07:31:36;;;;;;;10.45;3.22;;;8.90;99.90;;;;;;5045729;28;20037;-70
2022/11/25 07:34:09;;;;;;;8.43;2.55;;;8.90;99.90;;;;;;5051003;28;20055;-69
2022/11/25 07:36:36;;;;;;;9.35;2.60;;;9.00;99.90;;;;;;5032481;28;20045;-70
2022/11/25 07:39:06;;;;;;;8.88;2.45;;;9.00;99.90;;;;;;5040529;28;20095;-70
2022/11/25 07:41:32;;;;;;;12.27;3.40;;;9.00;99.90;;;;;;5032576;28;20041;-70
2022/11/25 07:44:02;;;;;;;10.15;3.97;;;9.00;99.90;;;;;;5033769;28;20045;-70
2022/11/25 07:46:33;;;;;;;8.68;2.78;;;9.00;99.90;;;;;;5052202;28;20036;-70
2022/11/25 07:49:02;;;;;;;9.35;3.28;;;9.00;99.90;;;;;;5051092;28;20040;-70
2022/11/25 07:51:43;;;;;;;9.25;2.85;;;8.90;99.90;;;;;;5051646;28;20072;-70
2022/11/25 07:54:10;;;;;;;11.27;2.92;;;8.90;99.90;;;;;;5050809;28;20052;-70
2022/11/25 07:56:37;;;;;;;9.70;2.83;;;8.90;99.90;;;;;;5052016;28;20056;-70
2022/11/25 07:59:04;;;;;;;11.07;3.20;;;8.90;99.90;;;;;;5049831;28;20041;-70
2022/11/25 08:01:30;;;;;;;8.93;2.72;;;8.90;99.90;;;;;;5051968;28;20337;-69
2022/11/25 08:03:56;;;;;;;9.77;3.17;;;8.80;99.90;;;;;;5050076;28;20057;-70
2022/11/25 08:06:24;;;;;;;10.45;2.83;;;8.80;99.90;;;;;;5052259;28;20499;-70
2022/11/25 08:08:53;;;;;;;10.35;2.90;;;8.80;99.90;;;;;;5050803;28;20041;-70
2022/11/25 08:11:24;;;;;;;11.43;3.10;;;8.80;99.90;;;;;;5051923;28;20037;-70
2022/11/25 08:13:50;;;;;;;9.88;3.15;;;8.80;99.90;;;;;;5029959;28;20461;-70
2022/11/25 08:16:18;;;;;;;11.27;2.97;;;8.90;99.90;;;;;;5051246;28;20083;-70
2022/11/25 08:18:44;;;;;;;12.18;2.97;;;8.90;99.90;;;;;;5035205;28;20052;-70
2022/11/25 08:21:12;;;;;;;9.65;2.85;;;8.90;99.90;;;;;;5050883;28;20040;-70
2022/11/25 08:23:39;;;;;;;11.85;3.38;;;8.90;99.90;;;;;;5051565;28;20041;-70
2022/11/25 08:26:07;;;;;;;11.88;2.97;;;8.90;99.90;;;;;;5049649;28;20037;-70
2022/11/25 08:28:34;;;;;;;10.77;2.83;;;8.80;99.90;;;;;;5035368;28;20120;-70
2022/11/25 08:31:05;;;;;;;10.38;2.50;;;8.80;99.90;;;;;;5050389;28;20167;-70
2022/11/25 08:33:30;;;;;;;10.20;2.97;;;8.90;99.90;;;;;;5051059;28;20548;-70
2022/11/25 08:35:56;;;;;;;11.40;2.83;;;8.90;99.90;;;;;;5050831;28;20116;-70
2022/11/25 08:38:22;;;;;;;8.70;2.85;;;8.80;99.90;;;;;;5035033;28;20037;-70
2022/11/25 08:40:48;;;;;;;13.85;3.22;;;8.80;99.90;;;;;;5049114;28;20036;-70
2022/11/25 08:43:13;;;;;;;9.98;3.13;;;8.90;99.90;;;;;;5050566;28;20047;-70
2022/11/25 08:45:42;;;;;;;8.90;3.28;;;8.90;99.90;;;;;;5051722;28;20032;-70
2022/11/25 08:48:08;;;;;;;10.30;3.53;;;8.90;99.90;;;;;;5034169;28;20504;-70
2022/11/25 08:50:34;;;;;;;12.23;2.83;;;8.90;99.90;;;;;;5034812;28;20134;-70
2022/11/25 08:53:00;;;;;;;10.43;3.25;;;8.90;99.90;;;;;;5033924;28;20037;-70
2022/11/25 08:55:26;;;;;;;11.73;2.92;;;9.00;99.90;;;;;;5034092;28;20389;-69
2022/11/25 08:57:53;;;;;;;10.85;3.25;;;9.00;99.90;;;;;;5034849;28;20041;-70
2022/11/25 09:00:20;;;;;;;9.70;2.53;;;9.00;99.90;;;;;;5048537;28;20481;-70
2022/11/25 09:02:46;;;;;;;10.40;3.40;;;9.00;99.90;;;;;;5052329;28;20425;-70
2022/11/25 09:05:13;;;;;;;11.82;3.72;;;9.10;99.90;;;;;;5041598;28;20038;-70
2022/11/25 09:07:39;;;;;;;8.50;2.83;;;9.10;99.90;;;;;;5018749;28;20037;-70
2022/11/25 09:10:12;;;;;;;7.78;3.40;;;9.10;99.90;;;;;;5046368;28;20055;-70
2022/11/25 09:12:38;;;;;;;11.05;2.90;;;9.20;99.90;;;;;;5054993;28;20037;-70
2022/11/25 09:15:04;;;;;;;10.63;2.80;;;9.30;99.90;;;;;;5036627;28;20037;-69
2022/11/25 09:17:30;;;;;;;10.35;3.22;;;9.30;99.90;;;;;;5055134;28;20095;-70
2022/11/25 09:19:56;;;;;;;9.27;3.28;;;9.30;99.90;;;;;;5036994;28;20041;-70
2022/11/25 09:22:22;;;;;;;8.70;3.15;;;9.30;99.90;;;;;;5038187;28;20049;-70
2022/11/25 09:24:47;;;;;;;8.52;3.10;;;9.40;99.90;;;;;;5053955;28;20040;-70
2022/11/25 09:27:13;;;;;;;8.32;3.15;;;9.40;99.90;;;;;;5038282;28;20087;-70
2022/11/25 09:29:38;;;;;;;8.55;3.25;;;9.40;99.90;;;;;;5049445;28;20049;-70
2022/11/25 09:32:04;;;;;;;10.50;3.60;;;9.40;99.90;;;;;;5042266;28;20033;-70
2022/11/25 09:34:29;;;;;;;10.20;3.00;;;9.50;99.90;;;;;;5023280;28;20037;-70
2022/11/25 09:36:55;;;;;;;10.57;3.47;;;9.50;99.90;;;;;;5056917;28;20166;-70
2022/11/25 09:39:21;;;;;;;12.50;3.38;;;9.60;99.90;;;;;;5048626;28;20066;-70
2022/11/25 09:48:07;;;;;;;10.20;3.70;;;9.90;99.90;;;;;;5058260;28;20040;-70
2022/11/25 09:51:00;;;;;;;13.30;3.55;;;9.90;99.90;;;;;;5074721;28;20058;-70
2022/11/25 09:53:44;;;;;;;11.15;4.00;;;10.00;99.90;;;;;;5026672;28;20041;-70
2022/11/25 09:56:33;;;;;;;8.82;3.28;;;10.00;99.90;;;;;;5061491;28;20409;-70
2022/11/25 09:59:06;;;;;;;8.82;3.10;;;10.10;99.90;;;;;;5023971;28;20048;-70
2022/11/25 10:02:10;;;;;;;8.68;3.10;;;10.10;99.90;;;;;;5048746;28;20044;-70
2022/11/25 10:04:42;;;;;;;9.60;2.75;;;10.20;99.90;;;;;;5031771;28;20558;-70
2022/11/25 10:07:24;;;;;;;9.80;3.30;;;10.20;99.90;;;;;;5037486;28;20049;-70
2022/11/25 10:09:50;;;;;;;8.38;3.20;;;10.30;99.90;;;;;;5037374;28;20080;-70
2022/11/25 10:12:29;;;;;;;8.50;3.08;;;10.30;99.90;;;;;;5053084;28;20424;-70
2022/11/25 10:15:01;;;;;;;8.93;2.80;;;10.40;99.90;;;;;;5037212;28;20029;-70
2022/11/25 10:17:43;;;;;;;9.68;3.60;;;10.40;99.90;;;;;;5053965;28;20076;-70
2022/11/25 10:20:15;;;;;;;10.48;3.10;;;10.50;99.90;;;;;;5053896;28;20084;-70
2022/11/25 10:22:44;;;;;;;9.60;2.95;;;10.60;99.90;;;;;;5053711;28;20497;-70
2022/11/25 10:25:16;;;;;;;9.90;3.67;;;10.60;99.90;;;;;;5052782;28;20041;-70
2022/11/25 10:28:00;;;;;;;8.82;2.90;;;10.60;99.90;;;;;;5053700;28;20037;-70
2022/11/25 10:30:37;;;;;;;9.95;3.15;;;10.70;99.90;;;;;;5037239;28;20397;-70
2022/11/25 10:33:20;;;;;;;12.57;4.07;;;10.80;99.90;;;;;;5052659;28;20040;-70
2022/11/25 10:36:00;;;;;;;11.18;2.60;;;10.90;99.90;;;;;;5053826;28;20033;-70
2022/11/25 10:38:34;;;;;;;9.27;2.90;;;10.80;99.90;;;;;;5037145;28;20044;-70
2022/11/25 10:41:02;;;;;;;8.88;2.83;;;10.90;99.90;;;;;;5053665;28;20033;-71
2022/11/25 10:43:32;;;;;;;15.00;3.40;;;10.90;99.90;;;;;;5053259;28;20041;-70
2022/11/25 10:46:08;;;;;;;11.82;3.30;;;10.80;99.90;;;;;;5053531;28;20075;-70
2022/11/25 10:48:58;;;;;;;7.95;3.08;;;10.80;99.90;;;;;;5036970;28;20492;-70
2022/11/25 10:51:46;;;;;;;10.35;3.58;;;10.80;99.90;;;;;;5036830;28;20485;-70
2022/11/25 10:54:21;;;;;;;9.50;3.67;;;10.80;99.90;;;;;;5053354;28;20040;-70
2022/11/25 10:56:56;;;;;;;11.52;2.67;;;10.80;99.90;;;;;;5053381;28;20157;-70
2022/11/25 10:59:32;;;;;;;9.18;2.75;;;10.90;99.90;;;;;;5053072;28;20041;-70
2022/11/25 11:02:24;;;;;;;7.00;2.40;;;11.00;99.90;;;;;;5028747;28;20045;-70
2022/11/25 11:05:13;;;;;;;8.90;2.58;;;11.00;99.90;;;;;;5016459;28;20057;-70
2022/11/25 11:07:42;;;;;;;7.80;2.53;;;11.00;99.90;;;;;;5016553;28;20037;-70
2022/11/25 11:10:14;;;;;;;11.77;3.03;;;11.00;99.90;;;;;;5032850;28;20521;-70
2022/11/25 11:12:50;;;;;;;9.68;2.38;;;11.00;99.90;;;;;;5032590;28;20041;-70
2022/11/25 11:15:26;;;;;;;7.82;2.28;;;11.00;99.90;;;;;;5047649;28;20037;-70
2022/11/25 11:17:53;;;;;;;12.88;2.83;;;11.00;99.90;;;;;;5044541;28;20550;-70
2022/11/25 11:20:28;;;;;;;8.65;3.22;;;10.90;99.90;;;;;;5053865;28;20064;-71
2022/11/25 11:22:57;;;;;;;11.32;2.47;;;10.90;99.90;;;;;;5055900;28;20045;-70
2022/11/25 11:25:29;;;;;;;13.73;3.15;;;10.90;99.90;;;;;;5067567;28;20049;-70
2022/11/25 11:27:56;;;;;;;12.45;4.03;;;10.90;99.90;;;;;;5035890;28;20044;-70
2022/11/25 11:30:29;;;;;;;10.48;2.22;;;11.00;99.90;;;;;;5049408;28;20493;-70
2022/11/25 11:33:26;;;;;;;12.13;2.10;;;11.00;99.90;;;;;;5062249;28;20036;-71
2022/11/25 11:36:20;;;;;;;9.80;2.00;;;10.90;99.90;;;;;;5071051;28;20032;-70
2022/11/25 11:39:22;;;;;;;10.35;2.33;;;10.90;99.90;;;;;;5056085;28;20388;-70
2022/11/25 11:42:09;;;;;;;10.73;2.20;;;10.90;99.90;;;;;;5054232;28;20058;-70
2022/11/25 11:45:19;;;;;;;9.15;2.15;;;10.90;99.90;;;;;;5070698;28;20047;-71
2022/11/25 11:48:22;;;;;;;12.18;2.50;;;11.00;99.90;;;;;;5042665;28;20592;-70
2022/11/25 11:51:10;;;;;;;8.50;2.10;;;11.00;99.90;;;;;;5052182;28;20105;-70
2022/11/25 11:53:46;;;;;;;9.25;2.08;;;11.00;99.90;;;;;;5055458;28;20077;-71
2022/11/25 11:56:32;;;;;;;9.18;2.85;;;11.00;99.90;;;;;;5046412;28;20076;-71
2022/11/25 11:59:30;;;;;;;10.20;2.22;;;11.00;99.90;;;;;;5050280;28;20041;-71
2022/11/25 12:02:17;;;;;;;9.55;1.98;;;11.00;99.90;;;;;;5051177;28;20033;-70
2022/11/25 12:04:48;;;;;;;10.23;2.20;;;11.00;99.90;;;;;;5025409;28;20501;-70
2022/11/25 12:07:40;;;;;;;10.07;1.95;;;10.90;99.90;;;;;;5033740;28;20076;-70
2022/11/25 12:10:26;;;;;;;8.93;2.17;;;11.00;99.90;;;;;;5053505;28;20063;-71
2022/11/25 12:13:16;;;;;;;9.13;2.17;;;11.00;99.90;;;;;;5061908;28;20040;-70
2022/11/25 12:16:04;;;;;;;8.88;2.20;;;10.80;99.90;;;;;;5052735;28;20045;-70
2022/11/25 12:18:55;;;;;;;11.27;2.45;;;10.80;99.90;;;;;;5045378;28;20033;-70
2022/11/25 12:21:56;;;;;;;11.02;2.13;;;10.80;99.90;;;;;;5052553;28;20044;-70
2022/11/25 12:24:35;;;;;;;8.93;2.42;;;10.80;99.90;;;;;;4989375;28;20076;-70
2022/11/25 12:27:16;;;;;;;14.20;2.70;;;10.80;99.90;;;;;;5053435;28;20041;-70
2022/11/25 12:29:56;;;;;;;10.65;2.80;;;10.90;99.90;;;;;;5053218;28;20123;-71
2022/11/25 12:32:33;;;;;;;10.60;2.10;;;10.80;99.90;;;;;;5049392;28;20581;-70
2022/11/25 12:35:18;;;;;;;10.27;2.42;;;10.90;99.90;;;;;;5050471;28;20573;-71
2022/11/25 12:38:08;;;;;;;10.02;2.45;;;10.90;99.90;;;;;;5032655;28;20048;-70
2022/11/25 12:40:40;;;;;;;11.80;2.40;;;10.90;99.90;;;;;;5042323;28;20519;-70
2022/11/25 12:43:13;;;;;;;;;;;10.90;99.90;;;;;;5038785;28;20033;-70
2022/11/25 12:45:40;;;;;;;8.30;1.80;;;11.00;99.90;;;;;;5055394;28;19979;-70
2022/11/25 12:48:09;;;;;;;14.25;2.63;;;11.00;99.90;;;;;;5064034;28;20044;-71
2022/11/25 12:51:01;;;;;;;12.30;2.67;;;11.00;99.90;;;;;;5070838;28;20523;-71
2022/11/25 12:53:42;;;;;;;12.02;2.30;;;11.00;99.90;;;;;;5031101;28;20072;-71
2022/11/25 12:56:20;;;;;;;10.77;2.25;;;11.00;99.90;;;;;;5051612;28;20045;-71
2022/11/25 12:59:06;;;;;;;12.02;2.45;;;11.00;99.90;;;;;;5037489;28;20041;-70
2022/11/25 13:01:32;;;;;;;11.43;2.50;;;11.00;99.90;;;;;;5057844;28;20052;-70
2022/11/25 13:04:43;;;;;;;12.60;2.63;;;11.00;99.90;;;;;;5068811;28;20052;-70
2022/11/25 13:07:47;;;;;;;12.68;2.65;;;11.10;99.90;;;;;;5073442;28;20040;-70
2022/11/25 13:10:35;;;;;;;10.07;2.10;;;11.10;99.90;;;;;;5064739;28;20041;-70
2022/11/25 13:13:24;;;;;;;7.40;2.08;;;11.00;99.90;;;;;;5057406;28;20056;-70